Terminal Aerodrome Forecast
Issued by NWS Northern Indiana

Home | Current Version | Previous Version | Graphics & Text | Print | Product List | Glossary On
Versions: 1 2 3 4 5 6 7 8 9 10 11 12 13 14 15
000
FTUS43 KIWX 052100 AAA
TAFFWA
TAF AMD
KFWA 052141Z 0522/0618 32008KT P6SM BKN040
      TEMPO 0522/0524 3SM -SHSN BKN020
     FM060200 27003KT P6SM SCT250
     FM061600 21014G22KT P6SM BKN250=

USA.gov is the U.S. government's official web portal to all federal, state and local government web resources and services.